createdAt,value
2022-08-10T00:00:13.941Z,3.70
2022-08-10T00:02:40.964Z,2.80
2022-08-10T00:05:08.189Z,3.08
2022-08-10T00:07:35.255Z,3.15
2022-08-10T00:10:02.306Z,2.83
2022-08-10T00:12:30.963Z,3.08
2022-08-10T00:15:52.282Z,3.42
2022-08-10T00:18:07.665Z,2.80
2022-08-10T00:20:34.531Z,3.08
2022-08-10T00:23:01.339Z,3.20
2022-08-10T00:25:28.248Z,3.08
2022-08-10T00:28:02.596Z,3.40
2022-08-10T00:30:30.827Z,3.25
2022-08-10T00:32:57.639Z,3.25
2022-08-10T00:35:24.436Z,2.95
2022-08-10T00:37:57.580Z,3.38
2022-08-10T00:40:37.316Z,3.20
2022-08-10T00:43:05.955Z,3.30
2022-08-10T00:45:33.384Z,3.03
2022-08-10T00:48:00.315Z,3.40
2022-08-10T00:50:27.718Z,3.00
2022-08-10T00:52:55.075Z,2.88
2022-08-10T00:55:21.971Z,3.22
2022-08-10T00:57:55.519Z,3.00
2022-08-10T01:00:23.933Z,3.17
2022-08-10T01:02:50.987Z,3.30
2022-08-10T01:05:20.788Z,3.13
2022-08-10T01:08:15.250Z,3.13
2022-08-10T01:12:47.133Z,2.90
2022-08-10T01:14:11.340Z,2.95
2022-08-10T01:16:50.521Z,2.92
2022-08-10T01:19:29.206Z,3.28
2022-08-10T01:22:09.526Z,3.10
2022-08-10T01:25:01.486Z,3.17
2022-08-10T01:27:44.027Z,3.00
2022-08-10T01:30:12.204Z,3.13
2022-08-10T01:32:48.441Z,3.10
2022-08-10T01:35:47.172Z,3.40
2022-08-10T01:38:34.644Z,3.05
2022-08-10T01:41:18.597Z,3.50
2022-08-10T01:43:56.058Z,3.20
2022-08-10T01:46:32.119Z,2.97
2022-08-10T01:49:00.886Z,3.33
2022-08-10T01:51:40.422Z,3.30
2022-08-10T01:54:12.941Z,3.28
2022-08-10T01:56:43.757Z,3.40
2022-08-10T01:59:39.989Z,3.20
2022-08-10T02:02:10.402Z,3.72
2022-08-10T02:04:40.333Z,3.17
2022-08-10T02:07:09.618Z,3.28
2022-08-10T02:09:40.396Z,3.10
2022-08-10T02:12:10.519Z,3.28
2022-08-10T02:14:47.878Z,3.58
2022-08-10T02:17:59.563Z,3.20
2022-08-10T02:20:14.321Z,3.33
2022-08-10T02:22:43.232Z,3.17
2022-08-10T02:25:39.543Z,3.30
2022-08-10T02:27:59.316Z,3.42
2022-08-10T02:30:28.560Z,3.38
2022-08-10T02:32:58.125Z,3.30
2022-08-10T02:35:29.171Z,3.33
2022-08-10T02:38:09.743Z,3.45
2022-08-10T02:45:15.616Z,3.25
2022-08-10T02:45:22.445Z,3.30
2022-08-10T02:46:29.508Z,3.17
2022-08-10T02:49:01.571Z,3.40
2022-08-10T02:52:07.370Z,3.53
2022-08-10T02:54:31.275Z,3.50
2022-08-10T02:57:11.819Z,3.13
2022-08-10T02:59:46.604Z,2.65
2022-08-10T03:02:20.807Z,2.78
2022-08-10T03:04:55.486Z,3.17
2022-08-10T03:07:43.559Z,3.22
2022-08-10T03:10:25.464Z,3.13
2022-08-10T03:12:57.724Z,3.10
2022-08-10T03:15:25.255Z,3.40
2022-08-10T03:17:57.838Z,3.42
2022-08-10T03:20:37.247Z,3.20
2022-08-10T03:23:13.882Z,3.33
2022-08-10T03:25:54.285Z,3.22
2022-08-10T03:28:23.196Z,2.80
2022-08-10T03:30:50.728Z,3.25
2022-08-10T03:33:18.018Z,3.05
2022-08-10T03:36:42.644Z,3.30
2022-08-10T03:38:32.220Z,3.15
2022-08-10T03:41:05.186Z,3.17
2022-08-10T03:43:33.960Z,3.10
2022-08-10T03:46:06.087Z,3.25
2022-08-10T03:48:49.034Z,3.17
2022-08-10T03:51:18.569Z,2.80
2022-08-10T03:54:05.350Z,2.70
2022-08-10T03:56:34.813Z,2.90
2022-08-10T03:59:02.094Z,3.33
2022-08-10T04:02:41.647Z,3.25
2022-08-10T04:04:23.250Z,2.88
2022-08-10T04:06:58.434Z,3.33
2022-08-10T04:09:53.679Z,3.15
2022-08-10T04:12:17.777Z,2.88
2022-08-10T04:14:51.234Z,3.25
2022-08-10T04:17:56.296Z,3.25
2022-08-10T04:20:19.824Z,3.25
2022-08-10T04:22:56.283Z,3.28
2022-08-10T04:25:25.353Z,3.60
2022-08-10T04:27:53.662Z,3.65
2022-08-10T04:30:20.978Z,3.60
2022-08-10T04:32:52.156Z,3.25
2022-08-10T04:35:20.867Z,3.58
2022-08-10T04:37:49.575Z,3.45
2022-08-10T04:40:28.880Z,3.35
2022-08-10T04:43:12.378Z,3.60
2022-08-10T04:45:49.823Z,3.63
2022-08-10T04:48:40.526Z,3.35
2022-08-10T04:51:17.387Z,3.38
2022-08-10T04:54:04.706Z,3.38
2022-08-10T04:56:35.713Z,3.38
2022-08-10T04:59:03.490Z,3.30
2022-08-10T05:02:21.471Z,3.25
2022-08-10T05:04:35.744Z,2.83
2022-08-10T05:07:16.611Z,4.10
2022-08-10T05:10:00.903Z,3.33
2022-08-10T05:12:35.947Z,3.22
2022-08-10T05:15:08.615Z,4.10
2022-08-10T05:17:36.518Z,3.30
2022-08-10T05:20:07.223Z,4.03
2022-08-10T05:22:36.112Z,3.63
2022-08-10T05:25:03.977Z,3.63
2022-08-10T05:27:30.694Z,4.70
2022-08-10T05:30:01.982Z,3.55
2022-08-10T05:32:56.274Z,3.97
2022-08-10T05:35:21.788Z,4.40
2022-08-10T05:38:13.373Z,3.38
2022-08-10T05:40:46.990Z,3.28
2022-08-10T05:43:19.591Z,3.00
2022-08-10T05:46:17.245Z,3.58
2022-08-10T05:48:55.623Z,3.50
2022-08-10T05:51:25.880Z,3.53
2022-08-10T05:54:04.299Z,4.00
2022-08-10T05:56:53.346Z,3.38
2022-08-10T06:00:35.341Z,3.45
2022-08-10T06:02:41.879Z,3.30
2022-08-10T06:05:15.857Z,3.50
2022-08-10T06:07:53.225Z,3.30
2022-08-10T06:10:32.631Z,3.00
2022-08-10T06:13:29.653Z,2.90
2022-08-10T06:16:02.560Z,2.85
2022-08-10T06:18:29.896Z,2.70
2022-08-10T06:20:57.536Z,2.60
2022-08-10T06:23:26.392Z,2.15
2022-08-10T06:26:11.422Z,2.15
2022-08-10T06:28:54.060Z,2.22
2022-08-10T06:31:46.770Z,2.15
2022-08-10T06:34:22.596Z,2.08
2022-08-10T06:36:50.373Z,2.33
2022-08-10T06:39:32.931Z,2.60
2022-08-10T06:42:17.639Z,2.20
2022-08-10T06:44:51.200Z,2.10
2022-08-10T06:47:23.075Z,1.90
2022-08-10T06:49:54.215Z,1.80
2022-08-10T06:52:30.581Z,1.60
2022-08-10T06:55:00.643Z,1.80
2022-08-10T06:57:31.000Z,1.65
2022-08-10T07:00:01.052Z,1.40
2022-08-10T07:02:54.855Z,1.45
2022-08-10T07:05:24.553Z,1.75
2022-08-10T07:07:54.339Z,1.58
2022-08-10T07:10:23.545Z,1.30
2022-08-10T07:12:57.707Z,1.55
2022-08-10T07:15:59.684Z,1.40
2022-08-10T07:18:14.344Z,1.45
2022-08-10T07:20:42.739Z,1.30
2022-08-10T07:23:58.871Z,1.15
2022-08-10T07:26:00.994Z,1.08
2022-08-10T07:28:30.020Z,1.30
2022-08-10T07:30:57.830Z,1.20
2022-08-10T07:33:24.856Z,1.00
2022-08-10T07:35:52.881Z,1.00
2022-08-10T07:38:23.912Z,1.35
2022-08-10T07:40:53.026Z,0.95
2022-08-10T07:43:24.948Z,0.90
2022-08-10T07:45:52.618Z,0.82
2022-08-10T07:48:28.558Z,0.63
2022-08-10T07:50:59.596Z,0.80
2022-08-10T07:53:43.045Z,1.17
2022-08-10T07:56:31.943Z,0.90
2022-08-10T07:59:07.794Z,0.88
2022-08-10T08:01:38.380Z,0.60
2022-08-10T08:04:11.751Z,1.00
2022-08-10T08:06:41.960Z,0.55
2022-08-10T08:09:10.894Z,0.68
2022-08-10T08:11:41.364Z,0.50
2022-08-10T08:14:08.957Z,0.80
2022-08-10T08:16:40.076Z,0.93
2022-08-10T08:19:26.926Z,0.90
2022-08-10T08:24:08.955Z,0.80
2022-08-10T08:24:44.238Z,0.90
2022-08-10T08:27:15.234Z,1.30
2022-08-10T08:32:11.756Z,0.68
2022-08-10T08:34:42.525Z,0.82
2022-08-10T08:37:11.522Z,0.88
2022-08-10T08:39:38.786Z,0.80
2022-08-10T08:42:53.984Z,1.08
2022-08-10T08:45:36.320Z,0.90
2022-08-10T08:48:52.321Z,1.20
2022-08-10T08:52:07.975Z,0.80
2022-08-10T08:54:56.993Z,1.20
2022-08-10T08:57:51.197Z,1.00
2022-08-10T09:00:24.378Z,1.17
2022-08-10T09:03:19.012Z,1.00
2022-08-10T09:06:13.978Z,0.90
2022-08-10T09:09:15.649Z,0.80
2022-08-10T09:12:08.546Z,1.10
2022-08-10T09:14:46.941Z,1.17
2022-08-10T09:17:31.197Z,0.82
2022-08-10T09:20:19.344Z,1.00
2022-08-10T09:22:57.604Z,1.10
2022-08-10T09:25:36.177Z,0.98
2022-08-10T09:28:07.934Z,0.90
2022-08-10T09:31:10.761Z,0.95
2022-08-10T09:36:29.510Z,0.77
2022-08-10T09:37:08.602Z,0.85
2022-08-10T09:40:12.315Z,1.35
2022-08-10T09:43:23.952Z,1.15
2022-08-10T09:46:05.726Z,0.90
2022-08-10T09:48:47.545Z,1.05
2022-08-10T09:54:06.226Z,0.60
2022-08-10T09:57:12.022Z,0.90
2022-08-10T10:00:08.486Z,1.00
2022-08-10T10:03:20.575Z,1.15
2022-08-10T10:06:03.593Z,0.80
2022-08-10T10:08:43.257Z,0.93
2022-08-10T10:11:28.956Z,0.73
2022-08-10T10:14:17.750Z,0.70
2022-08-10T10:17:07.903Z,0.95
2022-08-10T10:19:58.925Z,0.80
2022-08-10T10:22:52.817Z,0.90
2022-08-10T10:25:50.909Z,1.05
2022-08-10T10:28:59.749Z,1.15
2022-08-10T10:31:27.410Z,0.80
2022-08-10T10:34:14.648Z,1.02
2022-08-10T10:36:43.476Z,1.20
2022-08-10T10:39:13.878Z,0.90
2022-08-10T10:42:03.389Z,1.02
2022-08-10T10:44:42.507Z,1.17
2022-08-10T10:47:50.896Z,1.23
2022-08-10T10:50:18.186Z,1.20
2022-08-10T10:53:08.427Z,1.17
2022-08-10T10:56:13.172Z,0.85
2022-08-10T10:58:43.177Z,1.00
2022-08-10T11:01:42.409Z,1.85
2022-08-10T11:04:24.359Z,1.15
2022-08-10T11:07:33.671Z,1.38
2022-08-10T11:10:47.441Z,0.93
2022-08-10T11:16:35.855Z,1.20
2022-08-10T11:19:27.037Z,0.85
2022-08-10T11:22:36.777Z,1.15
2022-08-10T11:25:32.517Z,1.20
2022-08-10T11:28:18.020Z,1.33
2022-08-10T11:30:56.764Z,1.40
2022-08-10T11:34:11.418Z,1.10
2022-08-10T11:36:53.323Z,1.13
2022-08-10T11:39:49.734Z,1.02
2022-08-10T11:42:33.282Z,1.02
2022-08-10T11:45:07.254Z,1.33
2022-08-10T11:47:54.430Z,1.13
2022-08-10T11:50:29.153Z,1.17
2022-08-10T11:53:38.990Z,1.15
2022-08-10T11:56:11.136Z,1.00
2022-08-10T11:59:01.628Z,1.15
2022-08-10T12:01:45.646Z,1.00
2022-08-10T12:04:14.882Z,1.25
2022-08-10T12:06:55.147Z,1.00
2022-08-10T12:10:09.738Z,1.08
2022-08-10T12:12:12.875Z,1.05
2022-08-10T12:14:53.394Z,0.90
2022-08-10T12:17:35.483Z,1.00
2022-08-10T12:20:22.834Z,1.35
2022-08-10T12:23:00.383Z,1.27
2022-08-10T12:25:55.481Z,1.23
2022-08-10T12:28:49.444Z,1.30
2022-08-10T12:31:35.063Z,1.08
2022-08-10T12:34:07.780Z,0.90
2022-08-10T12:36:44.909Z,0.90
2022-08-10T12:39:28.216Z,1.30
2022-08-10T12:42:10.396Z,1.15
2022-08-10T12:44:57.717Z,1.15
2022-08-10T12:47:36.739Z,1.13
2022-08-10T12:50:33.254Z,1.13
2022-08-10T12:53:10.530Z,1.40
2022-08-10T12:55:42.100Z,1.45
2022-08-10T12:58:57.741Z,1.08
2022-08-10T13:01:21.380Z,1.55
2022-08-10T13:04:20.932Z,1.00
2022-08-10T13:06:46.301Z,1.40
2022-08-10T13:09:14.309Z,1.15
2022-08-10T13:12:35.040Z,1.00
2022-08-10T13:14:58.170Z,1.52
2022-08-10T13:17:38.928Z,1.27
2022-08-10T13:20:15.006Z,1.55
2022-08-10T13:22:42.961Z,1.20
2022-08-10T13:25:11.052Z,1.38
2022-08-10T13:28:00.762Z,1.40
2022-08-10T13:30:35.669Z,1.00
2022-08-10T13:33:07.347Z,1.58
2022-08-10T13:35:36.156Z,1.23
2022-08-10T13:38:06.093Z,1.00
2022-08-10T13:40:33.931Z,0.93
2022-08-10T13:43:05.647Z,1.45
2022-08-10T13:45:33.682Z,0.80
2022-08-10T13:48:14.233Z,0.90
2022-08-10T13:50:42.153Z,1.33
2022-08-10T13:53:15.224Z,0.90
2022-08-10T13:55:57.248Z,1.05
2022-08-10T13:58:37.059Z,0.90
2022-08-10T14:01:15.671Z,1.05
2022-08-10T14:03:44.349Z,1.05
2022-08-10T14:06:13.945Z,1.35
2022-08-10T14:08:48.604Z,0.90
2022-08-10T14:11:18.159Z,0.95
2022-08-10T14:13:55.656Z,1.17
2022-08-10T14:16:23.608Z,0.90
2022-08-10T14:18:54.223Z,0.95
2022-08-10T14:21:21.836Z,0.93
2022-08-10T14:23:53.257Z,1.00
2022-08-10T14:26:30.526Z,0.80
2022-08-10T14:29:08.242Z,1.13
2022-08-10T14:31:37.237Z,1.60
2022-08-10T14:34:08.996Z,1.13
2022-08-10T14:36:55.714Z,1.13
2022-08-10T14:39:29.077Z,0.80
2022-08-10T14:42:03.105Z,0.93
2022-08-10T14:44:45.762Z,1.20
2022-08-10T14:47:52.153Z,0.98
2022-08-10T14:50:05.098Z,1.08
2022-08-10T14:52:44.448Z,0.98
2022-08-10T14:55:19.837Z,1.02
2022-08-10T14:58:19.481Z,1.15
2022-08-10T15:00:42.786Z,1.40
2022-08-10T15:04:02.364Z,0.95
2022-08-10T15:06:07.780Z,0.80
2022-08-10T15:08:47.116Z,1.45
2022-08-10T15:12:14.080Z,1.00
2022-08-10T15:14:41.418Z,0.90
2022-08-10T15:16:57.750Z,0.90
2022-08-10T15:20:02.042Z,0.73
2022-08-10T15:22:37.208Z,1.13
2022-08-10T15:25:18.364Z,0.80
2022-08-10T15:27:55.017Z,0.77
2022-08-10T15:30:31.634Z,0.60
2022-08-10T15:34:02.653Z,0.90
2022-08-10T15:36:34.030Z,0.80
2022-08-10T15:39:11.960Z,1.23
2022-08-10T15:42:00.331Z,0.90
2022-08-10T15:44:43.224Z,1.25
2022-08-10T15:47:28.423Z,0.80
2022-08-10T15:50:21.875Z,0.73
2022-08-10T15:53:02.572Z,0.98
2022-08-10T15:55:51.817Z,1.23
2022-08-10T15:58:49.911Z,0.80
2022-08-10T16:02:13.816Z,0.80
2022-08-10T16:04:31.724Z,0.80
2022-08-10T16:07:06.903Z,0.95
2022-08-10T16:10:23.041Z,0.70
2022-08-10T16:12:37.202Z,1.23
2022-08-10T16:15:10.835Z,0.90
2022-08-10T16:18:11.640Z,0.80
2022-08-10T16:21:02.887Z,0.60
2022-08-10T16:23:38.696Z,0.85
2022-08-10T16:26:14.998Z,0.82
2022-08-10T16:28:55.341Z,0.63
2022-08-10T16:31:27.603Z,0.75
2022-08-10T16:33:58.573Z,0.77
2022-08-10T16:36:41.901Z,0.98
2022-08-10T16:39:18.164Z,1.70
2022-08-10T16:42:04.613Z,0.70
2022-08-10T16:44:52.291Z,0.77
2022-08-10T16:47:27.319Z,0.95
2022-08-10T16:49:58.233Z,1.25
2022-08-10T16:52:28.526Z,0.70
2022-08-10T16:55:17.018Z,0.80
2022-08-10T16:57:53.359Z,0.93
2022-08-10T17:00:22.547Z,1.02
2022-08-10T17:02:55.245Z,0.90
2022-08-10T17:06:05.871Z,0.82
2022-08-10T17:08:14.464Z,0.85
2022-08-10T17:10:42.913Z,0.98
2022-08-10T17:13:12.030Z,0.90
2022-08-10T17:15:47.226Z,1.00
2022-08-10T17:18:27.510Z,1.08
2022-08-10T17:20:59.844Z,0.90
2022-08-10T17:23:39.866Z,0.90
2022-08-10T17:26:14.903Z,0.90
2022-08-10T17:28:54.033Z,1.30
2022-08-10T17:31:54.769Z,1.08
2022-08-10T17:34:28.656Z,1.20
2022-08-10T17:37:02.267Z,1.08
2022-08-10T17:39:33.804Z,1.30
2022-08-10T17:42:01.640Z,0.90
2022-08-10T17:44:29.701Z,1.10
2022-08-10T17:46:57.771Z,1.20
2022-08-10T17:49:26.250Z,1.27
2022-08-10T17:51:56.563Z,0.90
2022-08-10T17:54:36.627Z,1.02
2022-08-10T17:57:14.549Z,1.10
2022-08-10T17:59:42.757Z,1.00
2022-08-10T18:02:13.665Z,1.30
2022-08-10T18:07:15.090Z,1.35
2022-08-10T18:09:54.922Z,1.25
2022-08-10T18:12:38.654Z,1.08
2022-08-10T18:15:13.796Z,1.27
2022-08-10T18:17:46.019Z,1.02
2022-08-10T18:20:15.890Z,1.05
2022-08-10T18:22:49.826Z,1.30
2022-08-10T18:25:20.329Z,1.27
2022-08-10T18:28:08.494Z,1.00
2022-08-10T18:30:45.703Z,1.10
2022-08-10T18:33:16.018Z,1.13
2022-08-10T18:35:45.533Z,1.55
2022-08-10T18:38:14.901Z,1.10
2022-08-10T18:40:45.043Z,1.40
2022-08-10T18:44:07.517Z,1.20
2022-08-10T18:46:06.810Z,1.20
2022-08-10T18:48:40.971Z,0.98
2022-08-10T18:51:09.713Z,1.40
2022-08-10T18:53:47.831Z,1.50
2022-08-10T18:56:20.719Z,1.20
2022-08-10T18:59:20.338Z,1.48
2022-08-10T19:02:05.878Z,1.02
2022-08-10T19:05:30.849Z,1.10
2022-08-10T19:08:31.217Z,1.50
2022-08-10T19:11:18.915Z,1.45
2022-08-10T19:13:50.928Z,1.30
2022-08-10T19:16:51.951Z,1.30
2022-08-10T19:19:37.291Z,1.33
2022-08-10T19:22:14.697Z,1.25
2022-08-10T19:25:08.042Z,1.42
2022-08-10T19:27:39.968Z,1.23
2022-08-10T19:30:14.420Z,1.20
2022-08-10T19:33:14.392Z,1.27
2022-08-10T19:36:02.940Z,1.40
2022-08-10T19:38:49.500Z,1.40
2022-08-10T19:41:44.287Z,1.30
2022-08-10T19:44:35.692Z,1.50
2022-08-10T19:47:25.225Z,1.33
2022-08-10T19:50:16.253Z,1.50
2022-08-10T19:52:54.292Z,1.20
2022-08-10T19:55:48.051Z,1.73
2022-08-10T19:58:35.741Z,1.27
2022-08-10T20:01:07.350Z,1.30
2022-08-10T20:03:55.413Z,1.40
2022-08-10T20:06:42.340Z,1.48
2022-08-10T20:09:24.441Z,1.52
2022-08-10T20:12:00.149Z,1.33
2022-08-10T20:14:57.967Z,1.42
2022-08-10T20:17:51.491Z,1.65
2022-08-10T20:20:51.675Z,1.60
2022-08-10T20:23:23.554Z,1.10
2022-08-10T20:26:04.684Z,1.20
2022-08-10T20:29:16.141Z,1.20
2022-08-10T20:32:15.861Z,1.05
2022-08-10T20:34:48.257Z,1.45
2022-08-10T20:38:03.035Z,1.30
2022-08-10T20:40:46.943Z,1.20
2022-08-10T20:43:34.802Z,1.45
2022-08-10T20:46:23.381Z,1.00
2022-08-10T20:49:01.447Z,1.10
2022-08-10T20:51:57.309Z,1.33
2022-08-10T20:54:32.447Z,1.17
2022-08-10T20:57:55.310Z,1.58
2022-08-10T21:00:23.520Z,1.10
2022-08-10T21:03:24.963Z,1.20
2022-08-10T21:06:42.808Z,1.40
2022-08-10T21:09:24.438Z,1.10
2022-08-10T21:12:22.218Z,1.20
2022-08-10T21:15:13.886Z,1.10
2022-08-10T21:17:49.573Z,1.10
2022-08-10T21:20:28.650Z,1.00
2022-08-10T21:22:58.961Z,0.80
2022-08-10T21:26:13.296Z,1.15
2022-08-10T21:28:52.414Z,0.98
2022-08-10T21:31:22.052Z,1.25
2022-08-10T21:34:15.236Z,1.08
2022-08-10T21:36:51.781Z,1.00
2022-08-10T21:39:41.922Z,1.02
2022-08-10T21:43:07.911Z,0.90
2022-08-10T21:46:00.391Z,1.38
2022-08-10T21:49:05.019Z,1.20
2022-08-10T21:52:06.609Z,1.20
2022-08-10T21:55:03.443Z,1.00
2022-08-10T21:58:11.873Z,1.10
2022-08-10T22:01:17.498Z,1.30
2022-08-10T22:04:03.704Z,1.50
2022-08-10T22:06:56.040Z,1.38
2022-08-10T22:09:50.240Z,1.38
2022-08-10T22:12:46.874Z,1.50
2022-08-10T22:18:53.693Z,1.65
2022-08-10T22:22:07.742Z,1.60
2022-08-10T22:25:22.080Z,1.90
2022-08-10T22:28:17.724Z,1.52
2022-08-10T22:34:36.730Z,1.52
2022-08-10T22:37:42.960Z,1.60
2022-08-10T22:40:55.210Z,1.50
2022-08-10T22:43:46.345Z,1.33
2022-08-10T22:46:40.333Z,1.42
2022-08-10T22:49:07.968Z,1.50
2022-08-10T22:52:16.983Z,1.50
2022-08-10T22:55:25.842Z,1.75
2022-08-10T22:58:11.233Z,1.52
2022-08-10T23:00:38.517Z,1.60
2022-08-10T23:03:22.219Z,1.50
2022-08-10T23:06:13.485Z,1.60
2022-08-10T23:09:01.509Z,1.70
2022-08-10T23:11:38.065Z,1.75
2022-08-10T23:14:08.946Z,1.50
2022-08-10T23:17:00.786Z,1.52
2022-08-10T23:20:15.433Z,1.50
2022-08-10T23:22:50.038Z,1.45
2022-08-10T23:25:21.837Z,1.50
2022-08-10T23:28:00.271Z,1.48
2022-08-10T23:30:35.117Z,1.50
2022-08-10T23:33:03.168Z,1.30
2022-08-10T23:36:30.233Z,1.50
2022-08-10T23:38:32.052Z,1.73
2022-08-10T23:41:04.802Z,1.50
2022-08-10T23:44:02.966Z,1.45
2022-08-10T23:46:28.839Z,1.70
2022-08-10T23:48:59.124Z,1.60
2022-08-10T23:51:56.203Z,1.70
2022-08-10T23:54:25.781Z,1.75
2022-08-10T23:57:01.114Z,1.75
2022-08-10T23:59:32.209Z,1.95
